sensor_id;sensor_type;location;lat;lon;timestamp;P1;P2;P0
72509;PMS5003;60532;56.114;40.350;2023-06-26T00:00:05;16.00;16.00;8.25
72509;PMS5003;60532;56.114;40.350;2023-06-26T00:02:06;15.60;15.60;8.40
72509;PMS5003;60532;56.114;40.350;2023-06-26T00:04:07;15.00;15.00;8.00
72509;PMS5003;60532;56.114;40.350;2023-06-26T00:06:07;21.00;17.25;8.75
72509;PMS5003;60532;56.114;40.350;2023-06-26T00:08:08;18.50;17.25;8.75
72509;PMS5003;60532;56.114;40.350;2023-06-26T00:10:08;15.25;12.50;8.00
72509;PMS5003;60532;56.114;40.350;2023-06-26T00:12:09;17.75;16.75;8.00
72509;PMS5003;60532;56.114;40.350;2023-06-26T00:14:09;14.75;14.50;7.25
72509;PMS5003;60532;56.114;40.350;2023-06-26T00:16:10;16.00;13.00;7.00
72509;PMS5003;60532;56.114;40.350;2023-06-26T00:18:10;17.50;15.25;8.25
72509;PMS5003;60532;56.114;40.350;2023-06-26T00:20:11;14.00;14.00;9.00
72509;PMS5003;60532;56.114;40.350;2023-06-26T00:22:12;14.25;14.25;5.25
72509;PMS5003;60532;56.114;40.350;2023-06-26T00:24:12;14.50;14.50;9.00
72509;PMS5003;60532;56.114;40.350;2023-06-26T00:26:13;21.20;13.60;7.20
72509;PMS5003;60532;56.114;40.350;2023-06-26T00:28:13;16.25;14.75;8.00
72509;PMS5003;60532;56.114;40.350;2023-06-26T00:30:14;15.75;15.75;9.00
72509;PMS5003;60532;56.114;40.350;2023-06-26T00:32:14;14.25;11.25;4.75
72509;PMS5003;60532;56.114;40.350;2023-06-26T00:34:15;19.75;16.50;8.50
72509;PMS5003;60532;56.114;40.350;2023-06-26T00:36:16;16.75;15.75;9.00
72509;PMS5003;60532;56.114;40.350;2023-06-26T00:38:16;14.75;13.75;7.75
72509;PMS5003;60532;56.114;40.350;2023-06-26T00:40:17;24.20;19.60;7.20
72509;PMS5003;60532;56.114;40.350;2023-06-26T00:42:18;16.50;13.25;7.00
72509;PMS5003;60532;56.114;40.350;2023-06-26T00:44:18;20.00;16.50;9.00
72509;PMS5003;60532;56.114;40.350;2023-06-26T00:46:18;15.25;13.50;7.00
72509;PMS5003;60532;56.114;40.350;2023-06-26T00:48:19;15.25;15.25;7.00
72509;PMS5003;60532;56.114;40.350;2023-06-26T00:50:20;11.75;11.00;5.75
72509;PMS5003;60532;56.114;40.350;2023-06-26T00:52:20;17.75;14.75;7.00
72509;PMS5003;60532;56.114;40.350;2023-06-26T00:54:21;16.00;15.00;8.50
72509;PMS5003;60532;56.114;40.350;2023-06-26T00:56:22;18.60;16.20;8.60
72509;PMS5003;60532;56.114;40.350;2023-06-26T00:58:23;15.60;14.20;8.00
72509;PMS5003;60532;56.114;40.350;2023-06-26T01:00:24;16.80;14.80;7.00
72509;PMS5003;60532;56.114;40.350;2023-06-26T01:02:25;17.00;17.00;8.80
72509;PMS5003;60532;56.114;40.350;2023-06-26T01:04:27;12.80;12.40;4.80
72509;PMS5003;60532;56.114;40.350;2023-06-26T01:06:32;14.60;13.80;7.80
72509;PMS5003;60532;56.114;40.350;2023-06-26T01:08:35;19.60;15.40;8.00
72509;PMS5003;60532;56.114;40.350;2023-06-26T01:10:36;16.00;14.50;7.00
72509;PMS5003;60532;56.114;40.350;2023-06-26T01:12:36;17.75;15.75;8.00
72509;PMS5003;60532;56.114;40.350;2023-06-26T01:14:39;16.20;16.20;7.40
72509;PMS5003;60532;56.114;40.350;2023-06-26T01:16:46;14.80;14.60;6.80
72509;PMS5003;60532;56.114;40.350;2023-06-26T01:18:47;14.80;14.80;7.00
72509;PMS5003;60532;56.114;40.350;2023-06-26T01:20:48;15.00;12.80;7.00
72509;PMS5003;60532;56.114;40.350;2023-06-26T01:25:12;13.20;13.20;7.20
72509;PMS5003;60532;56.114;40.350;2023-06-26T01:27:18;13.40;12.40;5.80
72509;PMS5003;60532;56.114;40.350;2023-06-26T01:29:22;16.20;14.60;7.80
72509;PMS5003;60532;56.114;40.350;2023-06-26T01:31:23;14.40;10.80;7.40
72509;PMS5003;60532;56.114;40.350;2023-06-26T01:33:24;16.25;14.00;8.00
72509;PMS5003;60532;56.114;40.350;2023-06-26T01:35:25;14.75;14.25;6.00
72509;PMS5003;60532;56.114;40.350;2023-06-26T01:37:25;17.00;16.00;8.00
72509;PMS5003;60532;56.114;40.350;2023-06-26T01:39:32;18.25;16.25;8.25
72509;PMS5003;60532;56.114;40.350;2023-06-26T01:41:33;20.40;16.80;8.00
72509;PMS5003;60532;56.114;40.350;2023-06-26T01:45:34;14.00;11.75;7.00
72509;PMS5003;60532;56.114;40.350;2023-06-26T01:47:34;14.00;14.00;7.00
72509;PMS5003;60532;56.114;40.350;2023-06-26T01:49:40;12.40;12.40;6.00
72509;PMS5003;60532;56.114;40.350;2023-06-26T01:51:45;14.20;12.60;6.80
72509;PMS5003;60532;56.114;40.350;2023-06-26T01:53:46;21.20;17.00;8.00
72509;PMS5003;60532;56.114;40.350;2023-06-26T01:55:53;16.60;13.80;8.60
72509;PMS5003;60532;56.114;40.350;2023-06-26T01:57:56;14.80;14.80;7.00
72509;PMS5003;60532;56.114;40.350;2023-06-26T01:59:57;13.00;13.00;8.00
72509;PMS5003;60532;56.114;40.350;2023-06-26T02:02:00;13.20;12.80;6.20
72509;PMS5003;60532;56.114;40.350;2023-06-26T02:04:01;14.80;12.80;7.20
72509;PMS5003;60532;56.114;40.350;2023-06-26T02:06:01;14.00;11.75;7.00
72509;PMS5003;60532;56.114;40.350;2023-06-26T02:08:02;14.50;12.25;8.00
72509;PMS5003;60532;56.114;40.350;2023-06-26T02:10:03;14.00;12.60;5.60
72509;PMS5003;60532;56.114;40.350;2023-06-26T02:12:03;13.25;10.50;6.00
72509;PMS5003;60532;56.114;40.350;2023-06-26T02:14:04;15.25;15.25;8.75
72509;PMS5003;60532;56.114;40.350;2023-06-26T02:16:04;12.50;10.00;5.25
72509;PMS5003;60532;56.114;40.350;2023-06-26T02:18:05;16.50;14.25;8.00
72509;PMS5003;60532;56.114;40.350;2023-06-26T02:20:06;18.75;15.75;8.25
72509;PMS5003;60532;56.114;40.350;2023-06-26T02:22:08;13.40;11.00;7.40
72509;PMS5003;60532;56.114;40.350;2023-06-26T02:24:08;10.25;9.25;7.75
72509;PMS5003;60532;56.114;40.350;2023-06-26T02:26:10;15.00;14.80;6.60
72509;PMS5003;60532;56.114;40.350;2023-06-26T02:28:11;13.60;12.60;7.60
72509;PMS5003;60532;56.114;40.350;2023-06-26T02:30:11;13.50;13.00;7.00
72509;PMS5003;60532;56.114;40.350;2023-06-26T02:32:12;10.50;9.75;7.25
72509;PMS5003;60532;56.114;40.350;2023-06-26T02:34:12;12.75;12.50;8.00
72509;PMS5003;60532;56.114;40.350;2023-06-26T02:36:13;12.25;12.25;6.25
72509;PMS5003;60532;56.114;40.350;2023-06-26T02:38:13;13.50;12.00;7.25
72509;PMS5003;60532;56.114;40.350;2023-06-26T02:40:14;12.00;10.33;7.00
72509;PMS5003;60532;56.114;40.350;2023-06-26T02:42:14;12.67;12.67;7.00
72509;PMS5003;60532;56.114;40.350;2023-06-26T02:44:15;11.00;11.00;6.33
72509;PMS5003;60532;56.114;40.350;2023-06-26T02:46:15;13.67;12.33;4.33
72509;PMS5003;60532;56.114;40.350;2023-06-26T02:48:16;11.00;11.00;7.00
72509;PMS5003;60532;56.114;40.350;2023-06-26T02:50:16;12.67;12.00;7.00
72509;PMS5003;60532;56.114;40.350;2023-06-26T02:52:17;12.00;11.67;7.00
72509;PMS5003;60532;56.114;40.350;2023-06-26T02:54:19;14.75;14.75;8.75
72509;PMS5003;60532;56.114;40.350;2023-06-26T02:56:19;15.00;13.67;7.33
72509;PMS5003;60532;56.114;40.350;2023-06-26T02:58:20;15.00;13.00;7.67
72509;PMS5003;60532;56.114;40.350;2023-06-26T03:00:20;12.33;12.33;6.67
72509;PMS5003;60532;56.114;40.350;2023-06-26T03:02:21;15.33;13.33;6.67
72509;PMS5003;60532;56.114;40.350;2023-06-26T03:04:21;14.00;12.67;7.67
72509;PMS5003;60532;56.114;40.350;2023-06-26T03:06:22;14.33;13.00;6.33
72509;PMS5003;60532;56.114;40.350;2023-06-26T03:08:23;11.33;11.33;7.33
72509;PMS5003;60532;56.114;40.350;2023-06-26T03:10:23;15.50;13.50;8.25
72509;PMS5003;60532;56.114;40.350;2023-06-26T03:12:24;12.00;12.00;7.50
72509;PMS5003;60532;56.114;40.350;2023-06-26T03:14:25;9.60;9.60;5.40
72509;PMS5003;60532;56.114;40.350;2023-06-26T03:16:27;13.80;13.40;7.20
72509;PMS5003;60532;56.114;40.350;2023-06-26T03:18:27;12.25;11.00;6.75
72509;PMS5003;60532;56.114;40.350;2023-06-26T03:20:28;13.25;13.00;7.75
72509;PMS5003;60532;56.114;40.350;2023-06-26T03:22:28;11.00;11.00;7.00
72509;PMS5003;60532;56.114;40.350;2023-06-26T03:24:29;14.75;14.00;8.25
72509;PMS5003;60532;56.114;40.350;2023-06-26T03:26:29;13.25;13.25;8.00
72509;PMS5003;60532;56.114;40.350;2023-06-26T03:28:29;11.50;10.00;7.00
72509;PMS5003;60532;56.114;40.350;2023-06-26T03:30:31;10.40;10.40;6.00
72509;PMS5003;60532;56.114;40.350;2023-06-26T03:32:32;10.25;10.25;6.00
72509;PMS5003;60532;56.114;40.350;2023-06-26T03:34:32;14.75;13.75;8.00
72509;PMS5003;60532;56.114;40.350;2023-06-26T03:36:33;12.50;11.00;6.75
72509;PMS5003;60532;56.114;40.350;2023-06-26T03:38:33;14.25;12.75;7.75
72509;PMS5003;60532;56.114;40.350;2023-06-26T03:40:34;11.50;9.25;5.00
72509;PMS5003;60532;56.114;40.350;2023-06-26T03:42:34;12.00;10.00;7.25
72509;PMS5003;60532;56.114;40.350;2023-06-26T03:44:35;8.20;8.20;4.40
72509;PMS5003;60532;56.114;40.350;2023-06-26T03:46:36;9.25;9.25;6.00
72509;PMS5003;60532;56.114;40.350;2023-06-26T03:48:36;13.25;12.25;8.00
72509;PMS5003;60532;56.114;40.350;2023-06-26T03:50:38;9.60;9.60;6.60
72509;PMS5003;60532;56.114;40.350;2023-06-26T03:52:38;13.00;13.00;8.00
72509;PMS5003;60532;56.114;40.350;2023-06-26T03:54:39;14.00;12.50;8.50
72509;PMS5003;60532;56.114;40.350;2023-06-26T03:56:43;10.80;10.80;5.40
72509;PMS5003;60532;56.114;40.350;2023-06-26T03:58:44;12.25;11.00;7.00
72509;PMS5003;60532;56.114;40.350;2023-06-26T04:00:44;18.00;13.80;8.20
72509;PMS5003;60532;56.114;40.350;2023-06-26T04:02:47;13.20;13.00;8.00
72509;PMS5003;60532;56.114;40.350;2023-06-26T04:04:47;11.50;11.50;7.00
72509;PMS5003;60532;56.114;40.350;2023-06-26T04:06:48;11.50;11.25;8.00
72509;PMS5003;60532;56.114;40.350;2023-06-26T04:08:48;9.00;9.00;6.75
72509;PMS5003;60532;56.114;40.350;2023-06-26T04:10:49;12.50;11.75;8.00
72509;PMS5003;60532;56.114;40.350;2023-06-26T04:12:52;13.40;12.20;8.00
72509;PMS5003;60532;56.114;40.350;2023-06-26T04:14:53;18.20;13.40;9.00
72509;PMS5003;60532;56.114;40.350;2023-06-26T04:16:53;13.00;10.75;6.00
72509;PMS5003;60532;56.114;40.350;2023-06-26T04:18:54;14.75;12.50;7.00
72509;PMS5003;60532;56.114;40.350;2023-06-26T04:21:09;15.80;13.00;8.20
72509;PMS5003;60532;56.114;40.350;2023-06-26T04:23:11;11.60;11.60;7.00
72509;PMS5003;60532;56.114;40.350;2023-06-26T04:25:14;12.50;12.50;7.50
72509;PMS5003;60532;56.114;40.350;2023-06-26T04:27:14;13.80;11.80;8.20
72509;PMS5003;60532;56.114;40.350;2023-06-26T04:29:15;13.20;11.60;7.60
72509;PMS5003;60532;56.114;40.350;2023-06-26T04:31:16;14.00;12.25;7.50
72509;PMS5003;60532;56.114;40.350;2023-06-26T04:33:16;11.50;11.50;7.50
72509;PMS5003;60532;56.114;40.350;2023-06-26T04:35:16;14.25;12.75;7.50
72509;PMS5003;60532;56.114;40.350;2023-06-26T04:37:17;9.25;9.00;5.75
72509;PMS5003;60532;56.114;40.350;2023-06-26T04:39:17;11.75;11.25;6.50
72509;PMS5003;60532;56.114;40.350;2023-06-26T04:41:18;15.25;13.50;7.00
72509;PMS5003;60532;56.114;40.350;2023-06-26T04:43:19;15.75;12.50;8.00
72509;PMS5003;60532;56.114;40.350;2023-06-26T04:45:19;12.75;11.25;8.00
72509;PMS5003;60532;56.114;40.350;2023-06-26T04:47:19;11.25;10.25;6.50
72509;PMS5003;60532;56.114;40.350;2023-06-26T04:49:20;10.50;9.00;6.00
72509;PMS5003;60532;56.114;40.350;2023-06-26T04:51:20;12.75;10.00;4.50
72509;PMS5003;60532;56.114;40.350;2023-06-26T04:53:21;10.25;8.50;5.75
72509;PMS5003;60532;56.114;40.350;2023-06-26T04:55:26;11.40;9.80;7.00
72509;PMS5003;60532;56.114;40.350;2023-06-26T04:57:26;12.00;11.00;6.80
72509;PMS5003;60532;56.114;40.350;2023-06-26T04:59:27;13.00;12.50;7.00
72509;PMS5003;60532;56.114;40.350;2023-06-26T05:01:27;10.00;10.00;5.00
72509;PMS5003;60532;56.114;40.350;2023-06-26T05:03:29;11.40;11.40;6.20
72509;PMS5003;60532;56.114;40.350;2023-06-26T05:05:30;12.00;9.00;5.50
72509;PMS5003;60532;56.114;40.350;2023-06-26T05:07:30;9.00;7.50;5.75
72509;PMS5003;60532;56.114;40.350;2023-06-26T05:09:31;9.50;9.50;6.00
72509;PMS5003;60532;56.114;40.350;2023-06-26T05:11:31;7.75;7.00;5.25
72509;PMS5003;60532;56.114;40.350;2023-06-26T05:13:32;11.25;8.75;6.00
72509;PMS5003;60532;56.114;40.350;2023-06-26T05:15:32;13.75;12.00;7.50
72509;PMS5003;60532;56.114;40.350;2023-06-26T05:17:33;12.50;11.00;6.75
72509;PMS5003;60532;56.114;40.350;2023-06-26T05:19:33;11.00;9.75;6.00
72509;PMS5003;60532;56.114;40.350;2023-06-26T05:21:34;11.50;11.00;7.00
72509;PMS5003;60532;56.114;40.350;2023-06-26T05:23:35;13.40;10.80;6.60
72509;PMS5003;60532;56.114;40.350;2023-06-26T05:25:35;13.80;11.80;6.40
72509;PMS5003;60532;56.114;40.350;2023-06-26T05:27:37;14.80;12.80;7.80
72509;PMS5003;60532;56.114;40.350;2023-06-26T05:29:37;9.75;9.75;5.75
72509;PMS5003;60532;56.114;40.350;2023-06-26T05:31:40;12.75;12.75;7.50
72509;PMS5003;60532;56.114;40.350;2023-06-26T05:33:43;12.00;12.00;7.00
72509;PMS5003;60532;56.114;40.350;2023-06-26T05:35:44;14.50;13.00;6.25
72509;PMS5003;60532;56.114;40.350;2023-06-26T05:37:45;13.25;13.25;8.00
72509;PMS5003;60532;56.114;40.350;2023-06-26T05:39:47;13.00;13.00;8.00
72509;PMS5003;60532;56.114;40.350;2023-06-26T05:41:48;9.50;9.25;5.00
72509;PMS5003;60532;56.114;40.350;2023-06-26T05:43:48;14.33;13.67;7.00
72509;PMS5003;60532;56.114;40.350;2023-06-26T05:45:49;14.00;12.67;9.00
72509;PMS5003;60532;56.114;40.350;2023-06-26T05:47:49;12.67;11.33;6.67
72509;PMS5003;60532;56.114;40.350;2023-06-26T05:49:50;12.25;12.25;7.25
72509;PMS5003;60532;56.114;40.350;2023-06-26T05:51:51;15.67;13.33;8.00
72509;PMS5003;60532;56.114;40.350;2023-06-26T05:53:51;14.67;12.00;8.00
72509;PMS5003;60532;56.114;40.350;2023-06-26T05:55:52;14.67;12.00;7.33
72509;PMS5003;60532;56.114;40.350;2023-06-26T05:57:52;13.33;11.67;5.67
72509;PMS5003;60532;56.114;40.350;2023-06-26T05:59:54;14.75;13.50;8.75
72509;PMS5003;60532;56.114;40.350;2023-06-26T06:01:54;13.25;13.25;7.50
72509;PMS5003;60532;56.114;40.350;2023-06-26T06:03:55;10.67;10.67;4.67
72509;PMS5003;60532;56.114;40.350;2023-06-26T06:05:56;10.00;10.00;6.00
72509;PMS5003;60532;56.114;40.350;2023-06-26T06:07:57;10.00;9.00;5.00
72509;PMS5003;60532;56.114;40.350;2023-06-26T06:09:57;13.00;11.75;6.50
72509;PMS5003;60532;56.114;40.350;2023-06-26T06:11:58;13.75;11.00;7.75
72509;PMS5003;60532;56.114;40.350;2023-06-26T06:13:59;13.00;10.80;7.00
72509;PMS5003;60532;56.114;40.350;2023-06-26T06:16:00;10.20;10.20;6.20
72509;PMS5003;60532;56.114;40.350;2023-06-26T06:18:00;12.00;10.50;6.75
72509;PMS5003;60532;56.114;40.350;2023-06-26T06:20:01;8.50;8.50;6.00
72509;PMS5003;60532;56.114;40.350;2023-06-26T06:22:01;11.50;11.50;6.75
72509;PMS5003;60532;56.114;40.350;2023-06-26T06:24:02;11.00;9.50;7.00
72509;PMS5003;60532;56.114;40.350;2023-06-26T06:26:03;9.80;9.80;6.00
72509;PMS5003;60532;56.114;40.350;2023-06-26T06:28:06;9.25;9.25;5.50
72509;PMS5003;60532;56.114;40.350;2023-06-26T06:30:07;9.80;9.80;6.00
72509;PMS5003;60532;56.114;40.350;2023-06-26T06:32:08;7.40;7.40;4.40
72509;PMS5003;60532;56.114;40.350;2023-06-26T06:34:09;10.25;10.25;7.00
72509;PMS5003;60532;56.114;40.350;2023-06-26T06:36:09;10.67;9.67;7.33
72509;PMS5003;60532;56.114;40.350;2023-06-26T06:38:09;9.00;8.33;5.00
72509;PMS5003;60532;56.114;40.350;2023-06-26T06:40:10;8.33;8.33;5.33
72509;PMS5003;60532;56.114;40.350;2023-06-26T06:42:11;10.33;10.33;7.00
72509;PMS5003;60532;56.114;40.350;2023-06-26T06:44:11;7.00;7.00;3.33
72509;PMS5003;60532;56.114;40.350;2023-06-26T06:46:12;11.33;11.33;7.00
72509;PMS5003;60532;56.114;40.350;2023-06-26T06:48:12;11.00;11.00;7.00
72509;PMS5003;60532;56.114;40.350;2023-06-26T06:50:13;12.00;11.67;7.67
72509;PMS5003;60532;56.114;40.350;2023-06-26T06:52:15;11.00;9.00;6.00
72509;PMS5003;60532;56.114;40.350;2023-06-26T06:54:16;13.00;12.00;6.67
72509;PMS5003;60532;56.114;40.350;2023-06-26T06:56:17;14.25;10.00;6.00
72509;PMS5003;60532;56.114;40.350;2023-06-26T06:58:18;8.33;8.33;4.00
72509;PMS5003;60532;56.114;40.350;2023-06-26T07:00:21;13.00;12.00;7.00
72509;PMS5003;60532;56.114;40.350;2023-06-26T07:02:21;9.00;9.00;6.00
72509;PMS5003;60532;56.114;40.350;2023-06-26T07:04:22;8.33;8.33;5.67
72509;PMS5003;60532;56.114;40.350;2023-06-26T07:06:23;10.33;9.00;6.67
72509;PMS5003;60532;56.114;40.350;2023-06-26T07:08:23;14.33;12.00;7.00
72509;PMS5003;60532;56.114;40.350;2023-06-26T07:10:23;8.00;8.00;5.00
72509;PMS5003;60532;56.114;40.350;2023-06-26T07:12:24;10.67;10.33;4.67
72509;PMS5003;60532;56.114;40.350;2023-06-26T07:14:25;12.67;10.00;6.00
72509;PMS5003;60532;56.114;40.350;2023-06-26T07:16:25;9.67;9.67;6.33
72509;PMS5003;60532;56.114;40.350;2023-06-26T07:18:26;10.33;7.00;3.67
72509;PMS5003;60532;56.114;40.350;2023-06-26T07:20:26;10.00;9.33;5.00
72509;PMS5003;60532;56.114;40.350;2023-06-26T07:22:26;10.00;10.00;5.00
72509;PMS5003;60532;56.114;40.350;2023-06-26T07:24:27;8.33;8.33;4.67
72509;PMS5003;60532;56.114;40.350;2023-06-26T07:26:27;10.00;9.33;4.33
72509;PMS5003;60532;56.114;40.350;2023-06-26T07:28:28;10.00;10.00;5.67
72509;PMS5003;60532;56.114;40.350;2023-06-26T07:30:28;8.33;8.33;4.00
72509;PMS5003;60532;56.114;40.350;2023-06-26T07:32:29;5.33;5.33;3.00
72509;PMS5003;60532;56.114;40.350;2023-06-26T07:34:29;9.33;9.33;5.00
72509;PMS5003;60532;56.114;40.350;2023-06-26T07:36:30;6.33;6.33;3.33
72509;PMS5003;60532;56.114;40.350;2023-06-26T07:38:30;8.33;7.00;4.33
72509;PMS5003;60532;56.114;40.350;2023-06-26T07:40:31;8.67;8.67;5.00
72509;PMS5003;60532;56.114;40.350;2023-06-26T07:42:31;8.00;8.00;5.00
72509;PMS5003;60532;56.114;40.350;2023-06-26T07:44:32;6.67;6.00;3.33
72509;PMS5003;60532;56.114;40.350;2023-06-26T07:46:32;8.33;6.67;4.00
72509;PMS5003;60532;56.114;40.350;2023-06-26T07:48:33;10.00;8.33;4.00
72509;PMS5003;60532;56.114;40.350;2023-06-26T07:50:33;10.00;9.00;4.33
72509;PMS5003;60532;56.114;40.350;2023-06-26T07:52:34;9.00;9.00;6.00
72509;PMS5003;60532;56.114;40.350;2023-06-26T07:54:34;8.00;8.00;4.67
72509;PMS5003;60532;56.114;40.350;2023-06-26T07:56:51;10.33;10.33;5.67
72509;PMS5003;60532;56.114;40.350;2023-06-26T07:58:52;10.00;8.50;5.00
72509;PMS5003;60532;56.114;40.350;2023-06-26T08:00:53;6.00;6.00;4.00
72509;PMS5003;60532;56.114;40.350;2023-06-26T08:02:53;8.33;7.67;5.00
72509;PMS5003;60532;56.114;40.350;2023-06-26T08:04:54;6.67;6.67;4.00
72509;PMS5003;60532;56.114;40.350;2023-06-26T08:06:55;8.00;8.00;4.00
72509;PMS5003;60532;56.114;40.350;2023-06-26T08:08:55;12.00;9.25;5.25
72509;PMS5003;60532;56.114;40.350;2023-06-26T08:10:56;8.33;8.33;5.33
72509;PMS5003;60532;56.114;40.350;2023-06-26T08:12:56;9.33;9.33;5.33
72509;PMS5003;60532;56.114;40.350;2023-06-26T08:14:57;12.00;9.33;4.33
72509;PMS5003;60532;56.114;40.350;2023-06-26T08:16:57;6.67;6.67;2.67
72509;PMS5003;60532;56.114;40.350;2023-06-26T08:19:00;7.25;7.25;4.25
72509;PMS5003;60532;56.114;40.350;2023-06-26T08:21:00;5.67;5.67;4.67
72509;PMS5003;60532;56.114;40.350;2023-06-26T08:23:00;10.00;10.00;6.00
72509;PMS5003;60532;56.114;40.350;2023-06-26T08:25:01;10.00;9.33;4.00
72509;PMS5003;60532;56.114;40.350;2023-06-26T08:27:02;11.25;8.25;3.75
72509;PMS5003;60532;56.114;40.350;2023-06-26T08:29:03;11.75;9.50;5.00
72509;PMS5003;60532;56.114;40.350;2023-06-26T08:31:10;8.50;8.00;3.50
72509;PMS5003;60532;56.114;40.350;2023-06-26T08:33:10;11.00;7.33;5.00
72509;PMS5003;60532;56.114;40.350;2023-06-26T08:35:12;8.25;8.25;4.00
72509;PMS5003;60532;56.114;40.350;2023-06-26T08:37:13;7.33;7.33;4.00
72509;PMS5003;60532;56.114;40.350;2023-06-26T08:39:13;8.33;6.67;4.00
72509;PMS5003;60532;56.114;40.350;2023-06-26T08:41:14;8.33;6.67;3.67
72509;PMS5003;60532;56.114;40.350;2023-06-26T08:43:14;8.00;6.33;4.00
72509;PMS5003;60532;56.114;40.350;2023-06-26T08:45:15;6.33;4.33;2.67
72509;PMS5003;60532;56.114;40.350;2023-06-26T08:47:15;6.00;6.00;3.33
72509;PMS5003;60532;56.114;40.350;2023-06-26T08:49:28;7.00;6.00;3.50
72509;PMS5003;60532;56.114;40.350;2023-06-26T08:51:30;6.00;4.25;3.00
72509;PMS5003;60532;56.114;40.350;2023-06-26T08:53:46;7.00;6.00;4.00
72509;PMS5003;60532;56.114;40.350;2023-06-26T08:55:50;6.75;6.75;4.00
72509;PMS5003;60532;56.114;40.350;2023-06-26T08:57:52;7.00;5.75;3.00
72509;PMS5003;60532;56.114;40.350;2023-06-26T08:59:53;6.25;6.25;3.25
72509;PMS5003;60532;56.114;40.350;2023-06-26T09:01:54;8.00;7.50;4.25
72509;PMS5003;60532;56.114;40.350;2023-06-26T09:03:55;4.67;3.67;1.67
72509;PMS5003;60532;56.114;40.350;2023-06-26T09:05:55;11.67;8.00;4.00
72509;PMS5003;60532;56.114;40.350;2023-06-26T09:07:56;6.00;6.00;3.00
72509;PMS5003;60532;56.114;40.350;2023-06-26T09:09:56;7.00;7.00;3.67
72509;PMS5003;60532;56.114;40.350;2023-06-26T09:11:57;9.00;8.00;4.33
72509;PMS5003;60532;56.114;40.350;2023-06-26T09:13:58;8.00;7.00;3.67
72509;PMS5003;60532;56.114;40.350;2023-06-26T09:15:59;7.25;7.25;4.50
72509;PMS5003;60532;56.114;40.350;2023-06-26T09:18:04;8.75;7.50;4.25
72509;PMS5003;60532;56.114;40.350;2023-06-26T09:20:05;10.00;8.50;3.50
72509;PMS5003;60532;56.114;40.350;2023-06-26T09:22:11;8.00;8.00;4.00
72509;PMS5003;60532;56.114;40.350;2023-06-26T09:24:12;9.00;7.00;5.00
72509;PMS5003;60532;56.114;40.350;2023-06-26T09:26:20;9.00;7.00;4.00
72509;PMS5003;60532;56.114;40.350;2023-06-26T09:28:21;10.75;9.75;6.00
72509;PMS5003;60532;56.114;40.350;2023-06-26T09:30:22;7.50;6.75;3.75
72509;PMS5003;60532;56.114;40.350;2023-06-26T09:32:26;10.50;9.00;5.00
72509;PMS5003;60532;56.114;40.350;2023-06-26T09:34:31;12.25;8.75;4.25
72509;PMS5003;60532;56.114;40.350;2023-06-26T09:36:32;8.75;8.25;5.00
72509;PMS5003;60532;56.114;40.350;2023-06-26T09:38:34;6.50;5.25;3.00
72509;PMS5003;60532;56.114;40.350;2023-06-26T09:40:34;10.50;9.25;5.00
72509;PMS5003;60532;56.114;40.350;2023-06-26T09:42:35;8.75;8.75;5.25
72509;PMS5003;60532;56.114;40.350;2023-06-26T09:44:36;6.33;6.33;4.67
72509;PMS5003;60532;56.114;40.350;2023-06-26T09:46:37;7.33;7.00;4.33
72509;PMS5003;60532;56.114;40.350;2023-06-26T09:48:38;8.25;8.00;4.00
72509;PMS5003;60532;56.114;40.350;2023-06-26T09:50:38;10.00;10.00;5.67
72509;PMS5003;60532;56.114;40.350;2023-06-26T09:52:41;8.25;8.25;4.25
72509;PMS5003;60532;56.114;40.350;2023-06-26T09:54:42;8.33;7.33;5.00
72509;PMS5003;60532;56.114;40.350;2023-06-26T09:56:45;9.00;9.00;5.00
72509;PMS5003;60532;56.114;40.350;2023-06-26T09:58:45;8.00;7.00;4.33
72509;PMS5003;60532;56.114;40.350;2023-06-26T10:00:46;10.33;10.33;5.67
72509;PMS5003;60532;56.114;40.350;2023-06-26T10:02:46;9.67;9.67;6.00
72509;PMS5003;60532;56.114;40.350;2023-06-26T10:04:47;11.33;9.67;5.33
72509;PMS5003;60532;56.114;40.350;2023-06-26T10:06:48;12.67;9.00;5.00
72509;PMS5003;60532;56.114;40.350;2023-06-26T10:08:50;11.00;10.50;5.75
72509;PMS5003;60532;56.114;40.350;2023-06-26T10:10:51;4.25;2.50;1.25
72509;PMS5003;60532;56.114;40.350;2023-06-26T10:12:54;9.25;7.75;5.00
72509;PMS5003;60532;56.114;40.350;2023-06-26T10:14:59;9.25;9.25;5.00
72509;PMS5003;60532;56.114;40.350;2023-06-26T10:17:11;9.50;8.50;4.00
72509;PMS5003;60532;56.114;40.350;2023-06-26T10:19:14;6.75;6.50;3.50
72509;PMS5003;60532;56.114;40.350;2023-06-26T10:21:17;9.25;7.50;4.00
72509;PMS5003;60532;56.114;40.350;2023-06-26T10:23:18;8.25;7.25;4.00
72509;PMS5003;60532;56.114;40.350;2023-06-26T10:25:19;8.50;8.50;5.00
72509;PMS5003;60532;56.114;40.350;2023-06-26T10:27:21;9.25;8.00;4.25
72509;PMS5003;60532;56.114;40.350;2023-06-26T10:29:22;6.75;4.75;2.50
72509;PMS5003;60532;56.114;40.350;2023-06-26T10:31:25;9.25;9.25;6.25
72509;PMS5003;60532;56.114;40.350;2023-06-26T10:33:26;8.75;8.50;5.00
72509;PMS5003;60532;56.114;40.350;2023-06-26T10:38:23;11.75;11.00;5.25
72509;PMS5003;60532;56.114;40.350;2023-06-26T10:40:47;8.33;8.00;5.00
72509;PMS5003;60532;56.114;40.350;2023-06-26T10:42:48;10.00;8.25;4.25
72509;PMS5003;60532;56.114;40.350;2023-06-26T10:44:49;11.33;9.67;6.33
72509;PMS5003;60532;56.114;40.350;2023-06-26T10:46:52;8.75;8.75;4.75
72509;PMS5003;60532;56.114;40.350;2023-06-26T10:49:00;10.25;9.00;5.25
72509;PMS5003;60532;56.114;40.350;2023-06-26T10:51:12;9.75;7.75;4.00
72509;PMS5003;60532;56.114;40.350;2023-06-26T10:53:14;9.25;8.00;5.00
72509;PMS5003;60532;56.114;40.350;2023-06-26T10:55:36;9.00;9.00;5.75
72509;PMS5003;60532;56.114;40.350;2023-06-26T10:57:36;11.25;11.25;6.00
72509;PMS5003;60532;56.114;40.350;2023-06-26T10:59:39;9.75;8.75;5.50
72509;PMS5003;60532;56.114;40.350;2023-06-26T11:01:41;8.75;7.00;5.00
72509;PMS5003;60532;56.114;40.350;2023-06-26T11:03:45;9.50;8.00;4.00
72509;PMS5003;60532;56.114;40.350;2023-06-26T11:05:47;10.75;10.75;5.50
72509;PMS5003;60532;56.114;40.350;2023-06-26T11:08:08;8.75;7.25;5.00
72509;PMS5003;60532;56.114;40.350;2023-06-26T11:10:09;10.50;8.50;5.50
72509;PMS5003;60532;56.114;40.350;2023-06-26T11:12:09;8.00;8.00;4.33
72509;PMS5003;60532;56.114;40.350;2023-06-26T11:14:10;9.00;9.00;6.00
72509;PMS5003;60532;56.114;40.350;2023-06-26T11:16:11;8.50;7.25;4.00
72509;PMS5003;60532;56.114;40.350;2023-06-26T11:18:12;12.75;10.00;5.00
72509;PMS5003;60532;56.114;40.350;2023-06-26T11:20:14;8.00;7.25;3.50
72509;PMS5003;60532;56.114;40.350;2023-06-26T11:22:16;11.00;9.25;5.25
72509;PMS5003;60532;56.114;40.350;2023-06-26T11:24:16;8.33;6.67;3.67
72509;PMS5003;60532;56.114;40.350;2023-06-26T11:26:18;9.75;8.00;5.75
72509;PMS5003;60532;56.114;40.350;2023-06-26T11:28:21;6.00;6.00;4.25
72509;PMS5003;60532;56.114;40.350;2023-06-26T11:30:25;7.00;7.00;3.00
72509;PMS5003;60532;56.114;40.350;2023-06-26T11:32:26;11.00;8.75;4.75
72509;PMS5003;60532;56.114;40.350;2023-06-26T11:34:29;9.25;9.25;5.25